Time;durP1;ratioP1;P1;durP2;ratioP2;P2;SDS_P1;SDS_P2;PMS_P1;PMS_P2;Temp;Humidity;BMP_temperature;BMP_pressure;BME280_temperature;BME280_humidity;BME280_pressure;Samples;Min_cycle;Max_cycle;Signal;HPM_P1;HPM_P2
2020/12/28 00:00:30;;;;;;;2.27;1.27;;;;;;;2.77;80.54;94907.63;1770422;81;21301;-89
2020/12/28 00:02:58;;;;;;;2.92;1.32;;;;;;;2.86;80.58;94906.02;1770620;80;21111;-89
2020/12/28 00:05:27;;;;;;;1.77;1.15;;;;;;;2.89;80.44;94906.77;1770532;81;21159;-89
2020/12/28 00:07:54;;;;;;;1.50;1.10;;;;;;;2.84;80.27;94904.20;1770465;80;21280;-89
2020/12/28 00:10:22;;;;;;;2.55;1.22;;;;;;;2.74;80.13;94887.23;1770546;80;21289;-89
2020/12/28 00:12:50;;;;;;;2.85;1.40;;;;;;;2.64;80.14;94897.75;1770427;81;21297;-89
2020/12/28 00:15:29;;;;;;;1.50;1.20;;;;;;;2.57;80.07;94899.89;1770820;80;21131;-89
2020/12/28 00:18:01;;;;;;;1.55;1.17;;;;;;;2.65;80.75;94903.23;1770545;80;21294;-88
2020/12/28 00:20:31;;;;;;;1.52;0.62;;;;;;;2.85;80.68;94891.37;1771051;79;21095;-89
2020/12/28 00:22:58;;;;;;;1.22;0.80;;;;;;;3.11;80.30;94877.59;1770617;80;21285;-88
2020/12/28 00:25:27;;;;;;;1.15;0.75;;;;;;;3.21;79.81;94888.49;1770505;80;21175;-88
2020/12/28 00:27:57;;;;;;;2.12;1.20;;;;;;;3.28;79.46;94898.92;1770408;81;21190;-88
2020/12/28 00:30:25;;;;;;;1.70;0.80;;;;;;;3.31;79.15;94874.02;1770667;81;21119;-88
2020/12/28 00:32:52;;;;;;;2.20;0.85;;;;;;;3.31;79.15;94874.02;1770489;80;21288;-88
2020/12/28 00:35:18;;;;;;;0.75;0.50;;;;;;;3.43;78.86;94877.06;1770510;80;21269;-88
2020/12/28 00:37:45;;;;;;;0.93;0.80;;;;;;;3.46;78.54;94884.36;1770445;80;21149;-88
2020/12/28 00:40:13;;;;;;;0.40;0.40;;;;;;;3.52;78.54;94888.52;1770497;80;21265;-88
2020/12/28 00:42:41;;;;;;;1.37;0.70;;;;;;;3.44;78.48;94869.98;1770587;81;21277;-88
2020/12/28 00:45:10;;;;;;;1.42;0.70;;;;;;;3.47;78.65;94866.28;1770544;80;21657;-88
2020/12/28 00:47:37;;;;;;;1.43;0.50;;;;;;;3.45;78.63;94851.38;1770726;80;21277;-88
2020/12/28 00:50:07;;;;;;;1.40;0.95;;;;;;;3.35;78.45;94857.22;1771029;79;21326;-88
2020/12/28 00:52:34;;;;;;;3.65;1.80;;;;;;;3.21;78.45;94861.78;1770628;81;21284;-88
2020/12/28 00:55:01;;;;;;;7.33;3.25;;;;;;;3.06;78.43;94860.59;1770575;80;21308;-88
2020/12/28 00:57:28;;;;;;;5.15;2.40;;;;;;;2.89;78.45;94857.58;1770536;80;21276;-88
2020/12/28 00:59:56;;;;;;;5.10;2.58;;;;;;;2.75;78.61;94846.94;1770498;80;21297;-88
2020/12/28 01:02:23;;;;;;;6.72;2.70;;;;;;;2.60;78.80;94839.19;1770455;81;21130;-88
2020/12/28 01:04:50;;;;;;;2.25;1.40;;;;;;;2.47;78.96;94842.40;1770464;81;21268;-88
2020/12/28 01:07:17;;;;;;;2.42;1.50;;;;;;;2.40;79.34;94841.41;1770464;80;21154;-88
2020/12/28 01:09:44;;;;;;;1.22;0.80;;;;;;;2.37;79.41;94858.91;1770501;80;21500;-89
2020/12/28 01:12:11;;;;;;;2.12;1.02;;;;;;;2.27;79.42;94857.67;1770404;80;21475;-88
2020/12/28 01:14:38;;;;;;;1.80;1.12;;;;;;;2.25;79.59;94830.99;1770421;80;21269;-88
2020/12/28 01:17:05;;;;;;;1.65;1.05;;;;;;;2.22;79.72;94835.45;1770446;80;21138;-88
2020/12/28 01:19:32;;;;;;;0.68;0.47;;;;;;;2.18;79.72;94842.28;1757697;80;21104;-88
2020/12/28 01:21:59;;;;;;;0.70;0.70;;;;;;;2.14;80.25;94841.26;1770452;80;21127;-88
2020/12/28 01:24:26;;;;;;;0.78;0.60;;;;;;;2.36;80.43;94822.83;1770472;80;21300;-88
2020/12/28 01:26:53;;;;;;;1.30;0.50;;;;;;;2.40;80.22;94824.41;1770683;81;21285;-89
2020/12/28 01:29:20;;;;;;;1.10;0.62;;;;;;;2.46;80.19;94813.38;1770494;81;21635;-88
2020/12/28 01:31:47;;;;;;;0.35;0.30;;;;;;;2.52;80.14;94822.74;1770525;80;21586;-88
2020/12/28 01:34:14;;;;;;;2.52;0.40;;;;;;;2.82;80.03;94808.17;1770733;80;21142;-88
2020/12/28 01:36:41;;;;;;;0.53;0.50;;;;;;;2.98;79.76;94788.68;1770413;80;21261;-88
2020/12/28 01:39:07;;;;;;;1.02;0.60;;;;;;;3.05;79.25;94770.02;1770417;80;21150;-88
2020/12/28 01:41:34;;;;;;;0.55;0.35;;;;;;;3.21;78.65;94761.50;1770558;80;21587;-88
2020/12/28 01:44:01;;;;;;;1.17;0.62;;;;;;;3.24;78.36;94764.89;1770368;80;21131;-88
2020/12/28 01:46:29;;;;;;;0.65;0.60;;;;;;;3.27;78.42;94759.09;1770744;81;21313;-88
2020/12/28 01:48:56;;;;;;;0.72;0.60;;;;;;;3.16;78.34;94761.55;1770971;79;21305;-88
2020/12/28 01:51:26;;;;;;;0.90;0.50;;;;;;;3.01;78.35;94748.61;1770478;80;21240;-88
2020/12/28 01:53:53;;;;;;;0.72;0.60;;;;;;;2.88;78.45;94739.55;1757424;81;21589;-88
2020/12/28 01:56:21;;;;;;;0.78;0.55;;;;;;;2.74;78.53;94735.48;1770739;81;21139;-88
2020/12/28 01:58:48;;;;;;;1.22;0.70;;;;;;;2.63;78.62;94732.69;1770416;81;21119;-88
2020/12/28 02:01:18;;;;;;;1.25;0.75;;;;;;;2.53;78.81;94735.38;1770518;80;21292;-88
2020/12/28 02:03:46;;;;;;;1.85;0.85;;;;;;;2.45;78.94;94743.82;1770590;80;21542;-88
2020/12/28 02:06:15;;;;;;;0.98;0.60;;;;;;;2.36;79.15;94737.06;1770542;80;21285;-88
2020/12/28 02:08:42;;;;;;;0.85;0.50;;;;;;;2.32;79.46;94732.14;1770348;81;21502;-88
2020/12/28 02:11:10;;;;;;;1.00;0.80;;;;;;;2.34;79.77;94715.12;1770653;80;21681;-88
2020/12/28 02:13:36;;;;;;;0.47;0.42;;;;;;;2.40;79.78;94719.02;1770273;80;21648;-88
2020/12/28 02:16:03;;;;;;;1.62;0.70;;;;;;;2.35;79.77;94725.83;1770741;80;21139;-88
2020/12/28 02:18:30;;;;;;;0.93;0.80;;;;;;;2.32;79.87;94718.54;1770330;80;21144;-88
2020/12/28 02:20:57;;;;;;;0.77;0.40;;;;;;;2.29;79.89;94720.92;1770972;79;21143;-88
2020/12/28 02:23:24;;;;;;;1.50;0.42;;;;;;;2.23;79.94;94714.92;1770044;80;21162;-88
2020/12/28 02:25:51;;;;;;;0.45;0.30;;;;;;;2.20;80.03;94701.63;1769707;81;21456;-88
2020/12/28 02:28:18;;;;;;;0.45;0.33;;;;;;;2.18;80.10;94723.34;1769599;80;21147;-88
2020/12/28 02:30:45;;;;;;;0.80;0.72;;;;;;;2.16;80.27;94726.23;1769614;81;21115;-88
2020/12/28 02:33:12;;;;;;;8.38;4.17;;;;;;;2.19;80.39;94724.90;1769467;81;21142;-88
2020/12/28 02:35:39;;;;;;;16.07;6.92;;;;;;;2.18;80.41;94726.73;1769561;81;21096;-89
2020/12/28 02:38:06;;;;;;;3.55;2.08;;;;;;;2.18;80.38;94728.04;1769567;80;21554;-88
2020/12/28 02:40:32;;;;;;;1.13;0.83;;;;;;;2.20;80.36;94714.17;1769706;80;21498;-88
2020/12/28 02:42:59;;;;;;;2.47;0.90;;;;;;;2.19;80.33;94707.38;1769555;81;21150;-88
2020/12/28 02:45:26;;;;;;;1.65;0.90;;;;;;;2.15;80.16;94700.36;1769609;81;21170;-88
2020/12/28 02:47:55;;;;;;;0.78;0.62;;;;;;;2.06;80.14;94691.00;1769530;81;21155;-88
2020/12/28 02:50:22;;;;;;;1.60;0.50;;;;;;;1.99;80.06;94701.77;1770115;79;21253;-88
2020/12/28 02:52:49;;;;;;;2.22;1.10;;;;;;;1.89;80.12;94694.50;1769709;81;21143;-88
2020/12/28 02:55:16;;;;;;;1.17;0.70;;;;;;;1.90;80.40;94696.06;1769844;81;21121;-89
2020/12/28 02:57:43;;;;;;;2.47;1.25;;;;;;;1.87;80.50;94689.55;1769590;80;21486;-89
2020/12/28 03:00:10;;;;;;;0.80;0.70;;;;;;;1.79;80.53;94683.58;1798811;79;21538;-88
2020/12/28 03:02:37;;;;;;;0.65;0.40;;;;;;;1.82;80.71;94683.56;1818715;79;21257;-88
2020/12/28 03:05:04;;;;;;;0.80;0.50;;;;;;;1.89;80.84;94670.99;1818669;79;21118;-88
2020/12/28 03:07:31;;;;;;;1.82;0.90;;;;;;;1.94;80.79;94653.97;1818687;79;21146;-88
2020/12/28 03:09:58;;;;;;;1.98;0.85;;;;;;;1.87;80.57;94666.56;1818617;79;21262;-88
2020/12/28 03:12:25;;;;;;;1.35;0.70;;;;;;;1.77;80.54;94652.50;1818646;79;21135;-88
2020/12/28 03:14:52;;;;;;;1.07;0.47;;;;;;;1.89;81.03;94639.11;1818578;79;21123;-88
2020/12/28 03:17:20;;;;;;;0.30;0.30;;;;;;;2.06;81.03;94646.05;1818973;79;21127;-88
2020/12/28 03:19:47;;;;;;;1.22;0.40;;;;;;;2.21;80.90;94626.84;1800476;79;21502;-88
2020/12/28 03:22:15;;;;;;;1.15;0.40;;;;;;;2.43;80.71;94611.26;1769589;81;21519;-88
2020/12/28 03:24:42;;;;;;;0.78;0.20;;;;;;;2.55;80.36;94612.45;1769405;80;21166;-88
2020/12/28 03:27:09;;;;;;;0.35;0.20;;;;;;;2.60;80.12;94607.69;1769581;81;21130;-88
2020/12/28 03:29:36;;;;;;;1.57;0.95;;;;;;;2.60;79.84;94605.08;1769598;81;21173;-88
2020/12/28 03:32:04;;;;;;;0.45;0.33;;;;;;;2.66;79.43;94610.49;1769773;81;21131;-88
2020/12/28 03:34:31;;;;;;;0.72;0.42;;;;;;;2.80;79.12;94620.55;1769516;81;21143;-88
2020/12/28 03:36:58;;;;;;;0.57;0.28;;;;;;;2.80;78.79;94612.70;1769821;81;21503;-88
2020/12/28 03:39:25;;;;;;;0.20;0.20;;;;;;;2.94;78.40;94598.42;1769571;81;21555;-88
2020/12/28 03:41:52;;;;;;;0.10;0.10;;;;;;;3.11;78.19;94604.54;1769754;80;21127;-88
2020/12/28 03:44:19;;;;;;;0.05;0.00;;;;;;;3.19;77.89;94610.45;1769738;80;21151;-88
2020/12/28 03:46:46;;;;;;;0.00;0.00;;;;;;;3.26;77.59;94597.28;1769820;81;21144;-88
2020/12/28 03:49:13;;;;;;;0.20;0.20;;;;;;;3.34;77.03;94593.23;1770346;79;21130;-88
2020/12/28 03:51:40;;;;;;;0.42;0.05;;;;;;;3.41;76.66;94586.36;1769923;81;21131;-88
2020/12/28 03:54:07;;;;;;;0.00;0.00;;;;;;;3.51;76.05;94579.65;1769624;81;21129;-88
2020/12/28 03:56:34;;;;;;;0.10;0.10;;;;;;;3.61;75.47;94574.81;1769821;80;21144;-88
2020/12/28 03:59:00;;;;;;;0.00;0.00;;;;;;;3.70;75.29;94583.60;1769639;80;21172;-88
2020/12/28 04:01:28;;;;;;;0.53;0.10;;;;;;;3.68;74.78;94570.01;1769687;81;21158;-88
2020/12/28 04:03:55;;;;;;;0.10;0.00;;;;;;;3.72;74.41;94539.02;1769729;80;21555;-88
2020/12/28 04:06:22;;;;;;;0.03;0.03;;;;;;;3.83;74.03;94567.16;1769720;81;21135;-88
2020/12/28 04:08:49;;;;;;;0.25;0.20;;;;;;;3.79;74.10;94579.25;1769623;81;21139;-88
2020/12/28 04:11:15;;;;;;;0.00;0.00;;;;;;;3.78;74.02;94577.70;1769814;80;21170;-88
2020/12/28 04:13:42;;;;;;;0.10;0.05;;;;;;;3.79;73.74;94579.25;1769805;81;21179;-88
2020/12/28 04:16:09;;;;;;;0.30;0.20;;;;;;;3.82;73.51;94577.40;1769725;81;21144;-88
2020/12/28 04:18:36;;;;;;;0.33;0.10;;;;;;;3.78;73.45;94560.66;1769610;80;21173;-88
2020/12/28 04:21:03;;;;;;;0.10;0.10;;;;;;;3.76;73.45;94547.85;1770249;79;21142;-88
2020/12/28 04:23:30;;;;;;;0.68;0.40;;;;;;;3.77;73.46;94565.13;1769575;80;21146;-87
2020/12/28 04:25:57;;;;;;;0.23;0.15;;;;;;;3.68;73.55;94582.58;1770538;80;21510;-88
2020/12/28 04:28:24;;;;;;;0.10;0.08;;;;;;;3.66;73.67;94563.74;1770681;81;21148;-88
2020/12/28 04:30:51;;;;;;;0.95;0.10;;;;;;;3.63;73.78;94574.77;1770477;80;21637;-88
2020/12/28 04:33:18;;;;;;;0.57;0.40;;;;;;;3.60;73.87;94558.84;1770573;80;21632;-88
2020/12/28 04:35:45;;;;;;;0.10;0.10;;;;;;;3.57;73.95;94562.81;1770463;80;21452;-89
2020/12/28 04:38:12;;;;;;;0.20;0.13;;;;;;;3.62;74.00;94575.06;1770496;80;21281;-88
2020/12/28 04:40:39;;;;;;;0.35;0.30;;;;;;;3.72;73.74;94574.39;1770474;80;21151;-88
2020/12/28 04:43:14;;;;;;;0.30;0.30;;;;;;;3.70;73.77;94557.40;1770758;80;21292;-88
2020/12/28 04:45:42;;;;;;;0.70;0.20;;;;;;;3.71;74.04;94568.13;1770512;80;21518;-87
2020/12/28 04:48:10;;;;;;;0.30;0.30;;;;;;;3.76;74.08;94538.68;1770505;80;21220;-88
2020/12/28 04:50:40;;;;;;;0.10;0.10;;;;;;;3.78;73.97;94549.65;1771016;79;21637;-88
2020/12/28 04:53:07;;;;;;;0.20;0.10;;;;;;;3.77;74.08;94515.34;1770455;80;21155;-88
2020/12/28 04:55:35;;;;;;;0.40;0.40;;;;;;;3.80;74.11;94529.70;1770510;81;21103;-88
2020/12/28 04:58:02;;;;;;;0.20;0.10;;;;;;;3.86;74.16;94525.95;1770461;81;21108;-89
2020/12/28 05:00:29;;;;;;;0.10;0.10;;;;;;;4.00;73.61;94523.38;1770580;80;21139;-88
2020/12/28 05:02:56;;;;;;;0.00;0.00;;;;;;;4.09;73.48;94540.80;1770482;81;21296;-88
2020/12/28 05:05:23;;;;;;;0.50;0.40;;;;;;;4.05;73.41;94537.17;1770504;80;21270;-88
2020/12/28 05:07:51;;;;;;;0.53;0.13;;;;;;;4.13;73.57;94549.64;1770432;80;21284;-89
2020/12/28 05:10:26;;;;;;;0.30;0.17;;;;;;;4.16;73.41;94556.92;1770454;81;21131;-89
2020/12/28 05:12:54;;;;;;;0.13;0.13;;;;;;;4.18;73.38;94522.00;1770514;81;21273;-89
2020/12/28 05:15:21;;;;;;;0.28;0.25;;;;;;;4.20;73.03;94548.47;1770409;80;21257;-88
2020/12/28 05:17:55;;;;;;;0.47;0.30;;;;;;;4.22;73.13;94527.98;1770783;80;21150;-89
2020/12/28 05:20:25;;;;;;;0.20;0.10;;;;;;;4.24;73.06;94540.30;1770901;79;21155;-88
2020/12/28 05:22:54;;;;;;;0.20;0.17;;;;;;;4.28;72.88;94506.63;1770475;80;21135;-88
2020/12/28 05:25:23;;;;;;;0.20;0.20;;;;;;;4.29;72.92;94534.42;1769863;80;21522;-89
2020/12/28 05:27:52;;;;;;;0.20;0.20;;;;;;;4.29;72.94;94527.08;1769905;81;21154;-89
2020/12/28 05:30:22;;;;;;;0.78;0.30;;;;;;;4.26;72.95;94508.00;1769624;81;21139;-89
2020/12/28 05:32:49;;;;;;;0.23;0.20;;;;;;;4.22;73.08;94525.36;1769800;80;21115;-89
2020/12/28 05:35:16;;;;;;;0.40;0.35;;;;;;;4.17;73.30;94528.31;1769536;81;21138;-89
2020/12/28 05:37:50;;;;;;;0.20;0.20;;;;;;;4.07;73.54;94531.10;1769659;80;21162;-88
2020/12/28 05:40:18;;;;;;;0.68;0.50;;;;;;;3.98;73.88;94486.97;1769689;81;21155;-89
2020/12/28 05:42:54;;;;;;;0.53;0.35;;;;;;;3.92;74.19;94507.77;1769756;81;21171;-88
2020/12/28 05:45:21;;;;;;;0.80;0.28;;;;;;;3.85;74.50;94504.21;1769591;81;21519;-88
2020/12/28 05:47:56;;;;;;;0.82;0.53;;;;;;;3.83;74.69;94521.30;1769680;81;21527;-88
2020/12/28 05:50:29;;;;;;;0.20;0.20;;;;;;;3.84;74.70;94529.41;1769504;79;21510;-88
2020/12/28 05:52:59;;;;;;;1.30;0.25;;;;;;;3.84;74.82;94509.75;1769582;81;21151;-88
2020/12/28 05:55:30;;;;;;;0.65;0.50;;;;;;;3.82;74.82;94501.39;1769897;81;21124;-88
2020/12/28 05:58:00;;;;;;;1.17;0.30;;;;;;;3.78;74.92;94501.17;1769827;81;21475;-87
2020/12/28 06:00:28;;;;;;;1.00;0.30;;;;;;;3.71;75.02;94498.69;1769822;81;21151;-88
2020/12/28 06:02:55;;;;;;;0.85;0.50;;;;;;;3.74;75.19;94497.57;1769826;81;21522;-88
2020/12/28 06:05:22;;;;;;;0.25;0.25;;;;;;;3.70;75.37;94505.77;1769531;81;21262;-88
2020/12/28 06:07:51;;;;;;;0.80;0.40;;;;;;;3.68;75.53;94504.50;1769692;81;21147;-88
2020/12/28 06:10:20;;;;;;;1.92;0.90;;;;;;;3.73;75.56;94525.38;1769581;80;21130;-88
2020/12/28 06:12:52;;;;;;;1.00;0.70;;;;;;;3.77;75.49;94521.11;1769595;81;21127;-88
2020/12/28 06:15:22;;;;;;;2.10;1.27;;;;;;;3.71;75.58;94530.13;1768869;81;21139;-88
2020/12/28 06:17:49;;;;;;;1.17;0.72;;;;;;;3.70;75.78;94471.70;1769717;81;21111;-88
2020/12/28 06:20:16;;;;;;;0.90;0.70;;;;;;;3.66;76.01;94510.53;1770065;79;21159;-89
2020/12/28 06:22:44;;;;;;;1.20;0.72;;;;;;;3.64;76.12;94522.61;1769796;80;21138;-89
2020/12/28 06:25:18;;;;;;;1.07;0.70;;;;;;;3.70;76.03;94497.13;1769492;81;21154;-88
2020/12/28 06:27:47;;;;;;;0.88;0.68;;;;;;;3.76;75.91;94489.42;1769637;81;21140;-88
2020/12/28 06:30:21;;;;;;;1.10;0.93;;;;;;;3.74;75.88;94488.40;1769553;80;21139;-88
2020/12/28 06:32:53;;;;;;;1.72;1.10;;;;;;;3.71;75.81;94486.36;1769628;81;21134;-88
2020/12/28 06:35:23;;;;;;;1.25;0.82;;;;;;;3.79;75.76;94484.91;1769483;81;21153;-88
2020/12/28 06:37:53;;;;;;;;;;;;;;;3.85;75.46;94475.38;1754386;81;21143;-88
2020/12/28 06:40:35;;;;;;;2.10;0.98;;;;;;;4.07;74.55;94458.23;1769544;79;20151;-89
2020/12/28 06:43:15;;;;;;;1.87;1.00;;;;;;;4.32;73.35;94464.86;1769883;81;21119;-90
2020/12/28 06:45:49;;;;;;;3.98;1.67;;;;;;;4.56;72.28;94488.30;1769629;81;21124;-89
2020/12/28 06:48:25;;;;;;;1.52;1.00;;;;;;;4.78;70.93;94479.18;1769626;81;21465;-89
2020/12/28 06:50:58;;;;;;;1.35;0.75;;;;;;;4.81;71.24;94460.77;1770050;79;21135;-90
2020/12/28 06:53:27;;;;;;;1.10;1.00;;;;;;;4.81;70.61;94430.05;1768961;81;21530;-89
2020/12/28 06:55:54;;;;;;;2.83;1.10;;;;;;;4.79;70.76;94410.42;1769557;81;21142;-89
2020/12/28 06:58:21;;;;;;;1.55;1.12;;;;;;;4.75;70.89;94410.98;1769556;81;21267;-89
2020/12/28 07:00:54;;;;;;;1.37;0.93;;;;;;;4.70;71.02;94402.45;1769538;81;21139;-90
2020/12/28 07:03:21;;;;;;;1.67;0.60;;;;;;;4.64;70.82;94403.08;1768648;81;21517;-89
2020/12/28 07:05:48;;;;;;;1.32;0.88;;;;;;;4.66;70.71;94386.53;1769620;81;21536;-89
2020/12/28 07:08:20;;;;;;;1.17;0.82;;;;;;;4.71;70.68;94401.39;1769566;81;21171;-89
2020/12/28 07:10:48;;;;;;;5.37;1.20;;;;;;;4.76;70.06;94387.61;1768594;81;21632;-89
2020/12/28 07:13:15;;;;;;;2.10;0.82;;;;;;;4.93;69.51;94426.38;1769584;80;21103;-89
2020/12/28 07:15:42;;;;;;;2.05;0.70;;;;;;;4.97;69.16;94356.98;1769748;81;21189;-89
2020/12/28 07:18:10;;;;;;;1.32;0.70;;;;;;;4.98;69.30;94365.09;1769536;81;21374;-91
2020/12/28 07:20:37;;;;;;;1.20;0.90;;;;;;;5.03;68.87;94392.55;1769809;79;21312;-89
2020/12/28 07:23:04;;;;;;;2.25;1.50;;;;;;;5.17;68.45;94372.26;1769590;81;21138;-89
2020/12/28 07:25:32;;;;;;;0.68;0.62;;;;;;;5.42;68.37;94385.88;1769510;80;21514;-90
2020/12/28 07:27:58;;;;;;;2.25;1.07;;;;;;;5.76;66.65;94391.32;1769618;81;21146;-90
2020/12/28 07:30:26;;;;;;;1.62;0.80;;;;;;;6.12;66.06;94376.75;1769620;81;21518;-89
2020/12/28 07:32:59;;;;;;;1.27;1.00;;;;;;;6.28;65.74;94377.65;1769483;81;21472;-89
2020/12/28 07:35:27;;;;;;;1.85;1.15;;;;;;;6.10;66.08;94363.67;1769746;81;21143;-90
2020/12/28 07:37:54;;;;;;;1.30;0.72;;;;;;;5.90;66.12;94368.37;1769555;80;21139;-90
2020/12/28 07:40:22;;;;;;;1.15;0.80;;;;;;;5.80;65.67;94403.34;1769629;81;21147;-89
2020/12/28 07:42:49;;;;;;;1.55;0.70;;;;;;;5.70;65.93;94350.48;1769550;81;21494;-90
2020/12/28 07:45:17;;;;;;;1.47;0.82;;;;;;;5.67;66.28;94337.95;1769576;81;21174;-89
2020/12/28 07:47:55;;;;;;;1.22;0.98;;;;;;;5.83;66.38;94323.86;1769691;81;21143;-89
2020/12/28 07:50:24;;;;;;;2.55;1.27;;;;;;;6.13;66.48;94328.86;1770226;79;21479;-89
2020/12/28 07:53:09;;;;;;;2.17;1.40;;;;;;;6.19;65.96;94306.58;1769743;81;21155;-89
2020/12/28 07:55:51;;;;;;;1.00;0.75;;;;;;;6.14;65.91;94323.29;1769515;81;21144;-90
2020/12/28 07:58:38;;;;;;;1.82;0.95;;;;;;;6.36;64.76;94326.37;1769511;81;21151;-90
2020/12/28 08:01:11;;;;;;;0.70;0.50;;;;;;;6.33;64.54;94305.91;1769002;81;21154;-90
2020/12/28 08:03:46;;;;;;;1.05;0.68;;;;;;;6.51;63.94;94343.03;1768649;81;21147;-89
2020/12/28 08:06:15;;;;;;;1.22;0.85;;;;;;;6.47;63.67;94283.41;1769193;81;21139;-89
2020/12/28 08:08:42;;;;;;;1.22;0.85;;;;;;;6.38;64.12;94278.69;1769840;81;21140;-89
2020/12/28 08:11:11;;;;;;;1.20;1.10;;;;;;;6.30;64.05;94271.01;1769583;80;21111;-89
2020/12/28 08:13:38;;;;;;;0.95;0.70;;;;;;;6.26;64.73;94287.19;1769560;81;21179;-89
2020/12/28 08:16:17;;;;;;;0.35;0.35;;;;;;;6.21;64.62;94253.14;1769528;81;21109;-89
2020/12/28 08:18:47;;;;;;;0.80;0.70;;;;;;;6.21;64.28;94254.45;1769770;81;21163;-90
2020/12/28 08:21:15;;;;;;;;;;;;;;;6.25;64.30;94293.53;1772763;79;21151;-89
2020/12/28 08:23:57;;;;;;;1.05;0.60;;;;;;;6.29;65.17;94265.52;1769695;81;20140;-89
2020/12/28 08:26:30;;;;;;;1.67;1.07;;;;;;;6.31;64.95;94273.88;1769606;81;21151;-89
2020/12/28 08:29:02;;;;;;;0.95;0.78;;;;;;;6.35;65.04;94232.72;1769873;81;21136;-88
2020/12/28 08:31:33;;;;;;;1.17;0.80;;;;;;;6.37;64.76;94231.87;1769687;81;21482;-89
2020/12/28 08:34:08;;;;;;;2.50;1.12;;;;;;;6.44;64.26;94241.38;1769678;81;21115;-89
2020/12/28 08:36:40;;;;;;;1.72;0.82;;;;;;;6.57;64.13;94253.37;1769921;81;21499;-89
2020/12/28 08:39:13;;;;;;;0.90;0.90;;;;;;;6.64;62.84;94253.70;1769658;81;21151;-89
2020/12/28 08:41:54;;;;;;;0.80;0.80;;;;;;;6.75;62.63;94228.58;1769642;81;21142;-89
2020/12/28 08:44:34;;;;;;;1.12;1.00;;;;;;;6.84;61.52;94226.72;1769572;81;21570;-89
2020/12/28 08:47:11;;;;;;;1.77;0.82;;;;;;;6.95;63.16;94233.76;1768746;80;21503;-89
2020/12/28 08:49:42;;;;;;;0.70;0.70;;;;;;;7.04;63.14;94221.36;1770455;79;21151;-89
2020/12/28 08:52:17;;;;;;;1.27;0.80;;;;;;;7.09;62.77;94211.41;1769639;81;21084;-89
2020/12/28 08:54:58;;;;;;;1.37;0.88;;;;;;;7.21;62.88;94221.84;1769702;81;21286;-89
2020/12/28 08:57:30;;;;;;;0.75;0.60;;;;;;;7.36;61.13;94217.38;1769841;81;21491;-90
2020/12/28 09:00:00;;;;;;;1.17;0.78;;;;;;;7.59;60.95;94224.48;1769683;81;21143;-90
2020/12/28 09:02:28;;;;;;;1.20;0.70;;;;;;;7.78;61.41;94233.33;1769727;81;21155;-90
2020/12/28 09:04:56;;;;;;;1.07;0.90;;;;;;;7.96;61.25;94209.71;1769645;81;21134;-90
2020/12/28 09:07:25;;;;;;;1.37;0.70;;;;;;;8.16;61.83;94197.07;1769682;81;21139;-90
2020/12/28 09:09:52;;;;;;;0.95;0.85;;;;;;;8.39;61.77;94183.59;1769915;81;21152;-90
2020/12/28 09:12:21;;;;;;;1.17;1.07;;;;;;;8.51;59.79;94202.13;1769644;81;21507;-90
2020/12/28 09:14:48;;;;;;;1.80;1.22;;;;;;;8.58;61.39;94189.17;1769702;81;21526;-91
2020/12/28 09:17:15;;;;;;;1.40;1.20;;;;;;;8.73;60.90;94177.25;1769710;81;21503;-90
2020/12/28 09:19:43;;;;;;;1.15;0.70;;;;;;;8.80;61.33;94190.14;1770154;79;21151;-90
2020/12/28 09:22:10;;;;;;;4.62;2.83;;;;;;;8.69;58.82;94196.92;1769653;81;21518;-90
2020/12/28 09:24:37;;;;;;;2.62;1.42;;;;;;;8.42;59.11;94193.50;1769629;80;21509;-91
2020/12/28 09:27:04;;;;;;;1.62;1.12;;;;;;;8.28;59.92;94199.78;1754494;81;21529;-90
2020/12/28 09:29:31;;;;;;;1.60;0.93;;;;;;;8.15;60.42;94212.68;1769903;80;21532;-90
2020/12/28 09:31:58;;;;;;;1.17;0.60;;;;;;;8.02;60.42;94216.33;1770095;81;21143;-90
2020/12/28 09:34:26;;;;;;;0.80;0.80;;;;;;;7.74;58.23;94211.55;1769946;80;21131;-90
2020/12/28 09:37:05;;;;;;;1.62;1.20;;;;;;;7.41;58.93;94208.73;1769907;81;21107;-90
2020/12/28 09:39:35;;;;;;;0.60;0.50;;;;;;;7.28;59.82;94198.41;1770114;80;21143;-90
2020/12/28 09:42:03;;;;;;;0.83;0.70;;;;;;;7.29;60.30;94202.58;1770087;80;21154;-90
2020/12/28 09:44:30;;;;;;;0.88;0.72;;;;;;;7.38;60.51;94194.88;1769940;80;21527;-90
2020/12/28 09:46:58;;;;;;;0.80;0.72;;;;;;;7.39;60.37;94183.80;1769902;80;21143;-91
2020/12/28 09:49:26;;;;;;;1.25;0.80;;;;;;;7.35;59.65;94201.34;1770320;79;21184;-91
2020/12/28 09:51:54;;;;;;;0.95;0.88;;;;;;;7.26;59.86;94187.41;1769969;80;21483;-91
2020/12/28 09:54:23;;;;;;;1.47;1.00;;;;;;;7.12;60.56;94196.28;1769816;80;21119;-90
2020/12/28 09:56:50;;;;;;;1.12;1.02;;;;;;;6.91;60.46;94184.89;1769865;80;21143;-90
2020/12/28 09:59:18;;;;;;;1.75;0.85;;;;;;;6.69;61.30;94207.46;1769772;81;21503;-91
2020/12/28 10:01:46;;;;;;;2.42;1.10;;;;;;;6.60;61.70;94214.04;1769977;80;21138;-90
2020/12/28 10:04:14;;;;;;;1.80;0.90;;;;;;;6.45;62.06;94217.92;1769865;81;21135;-90
2020/12/28 10:06:42;;;;;;;1.40;0.90;;;;;;;6.38;61.91;94218.17;1769890;80;21127;-90
2020/12/28 10:09:11;;;;;;;1.45;1.07;;;;;;;6.32;62.47;94218.07;1769806;80;21134;-90
2020/12/28 10:11:38;;;;;;;1.27;1.17;;;;;;;6.27;62.56;94222.95;1769886;81;21159;-90
2020/12/28 10:14:06;;;;;;;1.87;1.00;;;;;;;6.24;63.03;94215.69;1769774;80;21120;-90
2020/12/28 10:16:34;;;;;;;1.82;1.00;;;;;;;6.26;63.19;94216.15;1769956;80;21456;-90
2020/12/28 10:19:02;;;;;;;1.90;1.30;;;;;;;6.20;63.30;94207.64;1770326;79;21503;-90
2020/12/28 10:21:29;;;;;;;2.27;1.05;;;;;;;6.14;63.51;94214.66;1769954;80;21134;-90
2020/12/28 10:23:56;;;;;;;1.42;1.10;;;;;;;6.10;63.42;94219.00;1769921;81;21151;-90
2020/12/28 10:26:27;;;;;;;1.00;0.90;;;;;;;6.10;63.79;94209.80;1769637;80;21124;-90
2020/12/28 10:28:57;;;;;;;1.50;1.15;;;;;;;6.09;64.10;94202.98;1769603;81;21490;-91
2020/12/28 10:31:26;;;;;;;1.45;1.22;;;;;;;6.08;64.11;94197.50;1769918;81;21475;-90
2020/12/28 10:33:54;;;;;;;0.85;0.82;;;;;;;6.07;64.07;94192.01;1769512;81;21253;-90
2020/12/28 10:36:25;;;;;;;1.12;0.88;;;;;;;6.05;63.81;94191.52;1769655;81;21494;-90
2020/12/28 10:38:57;;;;;;;1.02;0.93;;;;;;;6.08;64.18;94188.30;1769664;81;21138;-90
2020/12/28 10:41:33;;;;;;;1.65;1.20;;;;;;;6.03;64.10;94198.41;1769703;81;21111;-91
2020/12/28 10:44:01;;;;;;;1.40;1.00;;;;;;;6.06;64.08;94195.72;1769489;81;21116;-90
2020/12/28 10:46:29;;;;;;;8.08;4.78;;;;;;;6.02;63.53;94194.22;1769579;81;21305;-90
2020/12/28 10:48:57;;;;;;;4.65;2.72;;;;;;;6.00;64.01;94196.94;1770009;79;21322;-90
2020/12/28 10:51:26;;;;;;;2.35;1.47;;;;;;;5.93;64.04;94207.92;1769587;81;21131;-91
2020/12/28 10:53:53;;;;;;;3.00;2.30;;;;;;;5.83;64.46;94212.89;1769570;81;21498;-90
2020/12/28 10:56:30;;;;;;;1.95;1.22;;;;;;;5.76;64.88;94217.04;1769637;81;21146;-90
2020/12/28 10:58:59;;;;;;;2.47;1.35;;;;;;;5.66;65.08;94213.63;1769484;81;21596;-91
2020/12/28 11:01:28;;;;;;;0.93;0.80;;;;;;;5.56;65.12;94207.87;1769585;81;21161;-90
2020/12/28 11:03:56;;;;;;;2.17;1.77;;;;;;;5.48;65.28;94216.49;1769597;81;21108;-90
2020/12/28 11:06:24;;;;;;;2.27;1.62;;;;;;;5.44;65.58;94229.47;1769848;81;21108;-90
2020/12/28 11:08:51;;;;;;;2.35;1.10;;;;;;;5.39;65.80;94219.11;1769526;81;21185;-90
2020/12/28 11:11:21;;;;;;;1.10;1.00;;;;;;;5.38;65.62;94232.55;1769569;81;21609;-90
2020/12/28 11:13:51;;;;;;;2.12;1.30;;;;;;;5.35;65.75;94223.42;1769549;80;21507;-90
2020/12/28 11:16:26;;;;;;;0.88;0.88;;;;;;;5.33;65.84;94230.81;1769995;81;21493;-91
2020/12/28 11:18:53;;;;;;;1.98;1.20;;;;;;;5.32;65.67;94227.41;1769720;80;21471;-90
2020/12/28 11:21:20;;;;;;;1.37;1.02;;;;;;;5.33;65.69;94238.15;1786532;80;21274;-90
2020/12/28 11:24:00;;;;;;;2.08;1.30;;;;;;;5.32;65.93;94243.71;1786403;80;21284;-91
2020/12/28 11:26:30;;;;;;;;;;;;;;;5.28;65.98;94246.71;1789183;80;21668;-90
2020/12/28 11:29:00;;;;;;;1.52;1.10;;;;;;;5.25;66.20;94263.08;1787075;79;20140;-90
2020/12/28 11:31:28;;;;;;;2.62;1.72;;;;;;;5.21;66.31;94264.77;1786514;80;21517;-90
2020/12/28 11:33:55;;;;;;;2.58;1.55;;;;;;;5.19;66.30;94268.98;1786434;80;21100;-90
2020/12/28 11:36:23;;;;;;;2.52;1.50;;;;;;;5.20;66.39;94281.04;1786627;80;21146;-90
2020/12/28 11:38:50;;;;;;;2.00;1.70;;;;;;;5.20;66.52;94283.67;1786595;80;21185;-90
2020/12/28 11:41:19;;;;;;;1.98;1.50;;;;;;;5.19;66.65;94279.49;1786520;80;21269;-90
2020/12/28 11:43:47;;;;;;;4.05;2.05;;;;;;;5.18;66.74;94282.42;1786700;80;21285;-90
2020/12/28 11:46:14;;;;;;;3.17;1.98;;;;;;;5.14;66.77;94298.02;1786614;80;21503;-90
2020/12/28 11:48:42;;;;;;;4.17;2.33;;;;;;;5.11;66.85;94305.18;1786757;80;21150;-90